createdAt,value
2023-01-07T00:01:53.590Z,0.35
2023-01-07T00:04:21.532Z,0.40
2023-01-07T00:09:21.351Z,2.60
2023-01-07T00:11:49.372Z,0.30
2023-01-07T00:14:17.000Z,0.47
2023-01-07T00:16:44.729Z,0.30
2023-01-07T00:21:41.366Z,0.63
2023-01-07T00:24:10.526Z,0.40
2023-01-07T00:26:39.209Z,0.70
2023-01-07T00:29:07.773Z,0.20
2023-01-07T00:31:38.918Z,0.63
2023-01-07T00:34:07.319Z,0.20
2023-01-07T00:36:37.374Z,0.40
2023-01-07T00:39:07.564Z,0.55
2023-01-07T00:41:35.893Z,0.30
2023-01-07T00:44:04.540Z,0.25
2023-01-07T00:46:34.022Z,0.20
2023-01-07T00:49:02.205Z,0.35
2023-01-07T00:51:34.603Z,0.30
2023-01-07T00:54:02.089Z,0.40
2023-01-07T00:56:31.025Z,0.20
2023-01-07T00:58:58.609Z,0.20
2023-01-07T01:01:26.502Z,0.30
2023-01-07T01:03:54.060Z,0.30
2023-01-07T01:06:24.919Z,0.43
2023-01-07T01:08:52.438Z,0.20
2023-01-07T01:11:21.471Z,0.30
2023-01-07T01:13:49.091Z,0.63
2023-01-07T01:16:18.837Z,1.05
2023-01-07T01:21:16.376Z,0.30
2023-01-07T01:23:44.280Z,0.32
2023-01-07T01:28:43.724Z,0.40
2023-01-07T01:31:13.562Z,0.20
2023-01-07T01:33:54.037Z,0.60
2023-01-07T01:36:24.484Z,0.20
2023-01-07T01:38:54.039Z,0.20
2023-01-07T01:41:22.031Z,0.43
2023-01-07T01:43:52.801Z,0.30
2023-01-07T01:46:44.251Z,0.40
2023-01-07T01:49:24.674Z,0.55
2023-01-07T01:51:58.874Z,0.93
2023-01-07T01:54:27.472Z,0.30
2023-01-07T01:56:59.959Z,0.20
2023-01-07T01:59:34.534Z,0.30
2023-01-07T02:02:06.697Z,0.32
2023-01-07T02:04:35.735Z,0.20
2023-01-07T02:07:11.841Z,0.28
2023-01-07T02:09:44.674Z,0.85
2023-01-07T02:12:50.313Z,0.20
2023-01-07T02:15:44.609Z,0.17
2023-01-07T02:18:30.987Z,0.20
2023-01-07T02:21:09.521Z,0.98
2023-01-07T02:24:06.464Z,0.15
2023-01-07T02:27:01.880Z,0.20
2023-01-07T02:30:01.591Z,0.13
2023-01-07T02:33:11.135Z,0.43
2023-01-07T02:36:00.589Z,0.22
2023-01-07T02:38:46.762Z,0.40
2023-01-07T02:41:44.153Z,0.77
2023-01-07T02:44:26.452Z,0.40
2023-01-07T02:47:29.769Z,0.68
2023-01-07T02:50:00.223Z,0.20
2023-01-07T02:52:31.228Z,0.17
2023-01-07T02:55:08.101Z,0.20
2023-01-07T02:58:08.627Z,0.20
2023-01-07T03:01:03.609Z,0.52
2023-01-07T03:03:38.186Z,0.30
2023-01-07T03:06:24.394Z,0.10
2023-01-07T03:09:12.173Z,0.15
2023-01-07T03:11:59.839Z,0.30
2023-01-07T03:14:34.400Z,0.17
2023-01-07T03:17:06.304Z,0.20
2023-01-07T03:19:38.386Z,0.30
2023-01-07T03:22:08.593Z,0.10
2023-01-07T03:24:39.534Z,0.20
2023-01-07T03:27:08.320Z,0.40
2023-01-07T03:29:43.513Z,0.63
2023-01-07T03:32:20.077Z,0.20
2023-01-07T03:34:50.138Z,0.10
2023-01-07T03:37:22.793Z,0.32
2023-01-07T03:39:53.080Z,0.20
2023-01-07T03:42:40.255Z,0.30
2023-01-07T03:45:27.006Z,0.20
2023-01-07T03:47:58.460Z,0.20
2023-01-07T03:50:33.541Z,0.15
2023-01-07T03:53:02.320Z,0.40
2023-01-07T03:55:38.132Z,0.10
2023-01-07T03:58:07.347Z,0.10
2023-01-07T04:00:40.017Z,0.10
2023-01-07T04:03:16.501Z,0.20
2023-01-07T04:05:47.940Z,0.20
2023-01-07T04:08:17.970Z,0.20
2023-01-07T04:10:45.377Z,0.40
2023-01-07T04:13:18.831Z,0.10
2023-01-07T04:15:48.739Z,0.15
2023-01-07T04:18:16.197Z,0.30
2023-01-07T04:20:48.149Z,0.30
2023-01-07T04:23:16.730Z,0.40
2023-01-07T04:25:47.639Z,0.20
2023-01-07T04:28:18.241Z,0.10
2023-01-07T04:30:45.778Z,0.25
2023-01-07T04:33:15.329Z,0.30
2023-01-07T04:35:46.577Z,0.70
2023-01-07T04:38:14.133Z,0.10
2023-01-07T04:40:41.734Z,0.20
2023-01-07T04:43:10.307Z,0.20
2023-01-07T04:45:37.743Z,0.10
2023-01-07T04:48:05.620Z,0.10
2023-01-07T04:50:34.061Z,0.30
2023-01-07T04:53:01.537Z,0.20
2023-01-07T04:55:29.754Z,0.17
2023-01-07T04:57:57.957Z,0.55
2023-01-07T05:00:25.522Z,0.20
2023-01-07T05:02:55.151Z,0.30
2023-01-07T05:05:22.705Z,0.20
2023-01-07T05:07:50.138Z,0.20
2023-01-07T05:10:19.250Z,0.30
2023-01-07T05:12:47.190Z,0.20
2023-01-07T05:15:19.329Z,0.20
2023-01-07T05:17:49.154Z,0.20
2023-01-07T05:20:17.268Z,0.55
2023-01-07T05:22:46.990Z,0.32
2023-01-07T05:25:14.635Z,0.20
2023-01-07T05:27:44.755Z,0.10
2023-01-07T05:30:12.797Z,0.30
2023-01-07T05:32:42.975Z,0.30
2023-01-07T05:35:10.785Z,0.40
2023-01-07T05:37:38.873Z,0.20
2023-01-07T05:40:08.760Z,0.20
2023-01-07T05:42:55.582Z,0.20
2023-01-07T05:45:23.136Z,0.20
2023-01-07T05:47:50.529Z,0.10
2023-01-07T05:50:18.023Z,0.30
2023-01-07T05:52:45.718Z,0.20
2023-01-07T05:55:13.458Z,0.28
2023-01-07T05:57:42.516Z,0.10
2023-01-07T06:00:10.535Z,0.20
2023-01-07T06:02:40.947Z,0.20
2023-01-07T06:05:09.243Z,0.20
2023-01-07T06:07:37.000Z,0.10
2023-01-07T06:10:05.033Z,0.40
2023-01-07T06:12:51.463Z,0.20
2023-01-07T06:15:19.037Z,0.20
2023-01-07T06:17:48.859Z,0.10
2023-01-07T06:20:16.615Z,0.10
2023-01-07T06:25:12.921Z,0.20
2023-01-07T06:27:47.860Z,0.20
2023-01-07T06:30:15.413Z,0.20
2023-01-07T06:32:44.962Z,0.10
2023-01-07T06:35:12.521Z,0.47
2023-01-07T06:37:46.337Z,0.55
2023-01-07T06:40:15.832Z,0.57
2023-01-07T06:42:43.451Z,0.32
2023-01-07T06:45:19.438Z,0.20
2023-01-07T06:47:48.563Z,0.30
2023-01-07T06:50:16.411Z,0.43
2023-01-07T06:55:24.579Z,0.75
2023-01-07T06:57:52.193Z,0.10
2023-01-07T07:00:19.699Z,0.30
2023-01-07T07:02:50.599Z,0.30
2023-01-07T07:05:18.359Z,0.30
2023-01-07T07:07:45.723Z,0.63
2023-01-07T07:10:13.874Z,0.20
2023-01-07T07:12:41.699Z,0.40
2023-01-07T07:15:09.715Z,0.20
2023-01-07T07:17:37.279Z,0.13
2023-01-07T07:20:05.357Z,0.25
2023-01-07T07:22:34.967Z,0.50
2023-01-07T07:25:06.668Z,0.20
2023-01-07T07:27:34.269Z,0.30
2023-01-07T07:30:01.660Z,0.52
2023-01-07T07:32:29.588Z,0.65
2023-01-07T07:34:57.545Z,0.38
2023-01-07T07:39:52.737Z,0.20
2023-01-07T07:44:50.947Z,0.43
2023-01-07T07:47:18.648Z,0.20
2023-01-07T07:49:46.101Z,0.32
2023-01-07T07:52:13.606Z,0.20
2023-01-07T07:54:42.700Z,0.20
2023-01-07T07:57:10.347Z,0.40
2023-01-07T07:59:37.771Z,0.25
2023-01-07T08:02:05.747Z,0.32
2023-01-07T08:04:34.635Z,0.20
2023-01-07T08:07:07.617Z,0.47
2023-01-07T08:09:34.980Z,0.32
2023-01-07T08:12:02.427Z,0.30
2023-01-07T08:14:29.836Z,0.77
2023-01-07T08:17:04.198Z,0.68
2023-01-07T08:19:31.669Z,0.45
2023-01-07T08:21:59.119Z,0.30
2023-01-07T08:24:26.727Z,0.30
2023-01-07T08:26:55.736Z,0.25
2023-01-07T08:29:31.155Z,0.20
2023-01-07T08:31:58.569Z,0.20
2023-01-07T08:34:32.610Z,0.20
2023-01-07T08:37:00.595Z,0.20
2023-01-07T08:39:28.114Z,0.20
2023-01-07T08:41:55.775Z,0.30
2023-01-07T08:44:23.194Z,0.40
2023-01-07T08:46:56.810Z,0.20
2023-01-07T08:49:26.801Z,0.40
2023-01-07T08:51:54.359Z,0.60
2023-01-07T08:54:21.751Z,0.30
2023-01-07T08:56:51.472Z,0.50
2023-01-07T08:59:19.084Z,0.63
2023-01-07T09:01:46.536Z,0.63
2023-01-07T09:04:14.026Z,0.52
2023-01-07T09:06:41.456Z,0.43
2023-01-07T09:09:09.336Z,0.43
2023-01-07T09:14:03.767Z,1.00
2023-01-07T09:16:31.449Z,0.20
2023-01-07T09:18:58.971Z,0.65
2023-01-07T09:21:27.546Z,0.20
2023-01-07T09:23:54.937Z,0.90
2023-01-07T09:26:22.332Z,0.38
2023-01-07T09:28:49.740Z,0.40
2023-01-07T09:31:17.191Z,0.28
2023-01-07T09:33:44.635Z,0.98
2023-01-07T09:36:13.494Z,0.40
2023-01-07T09:38:41.416Z,0.35
2023-01-07T09:41:22.998Z,0.63
2023-01-07T09:44:00.283Z,0.60
2023-01-07T09:46:31.193Z,0.47
2023-01-07T09:49:03.863Z,0.68
2023-01-07T09:51:42.027Z,0.40
2023-01-07T09:54:21.759Z,0.93
2023-01-07T09:56:49.232Z,1.02
2023-01-07T09:59:17.599Z,0.40
2023-01-07T10:02:00.320Z,1.00
2023-01-07T10:04:30.853Z,0.93
2023-01-07T10:06:58.978Z,0.43
2023-01-07T10:09:36.009Z,0.40
2023-01-07T10:12:54.337Z,0.47
2023-01-07T10:15:41.944Z,0.82
2023-01-07T10:18:13.529Z,0.93
2023-01-07T10:20:58.854Z,0.25
2023-01-07T10:23:32.070Z,0.20
2023-01-07T10:26:02.630Z,0.77
2023-01-07T10:28:43.100Z,0.38
2023-01-07T10:31:17.065Z,1.55
2023-01-07T10:33:47.570Z,0.60
2023-01-07T10:36:32.036Z,0.30
2023-01-07T10:39:08.452Z,0.85
2023-01-07T10:41:50.975Z,0.80
2023-01-07T10:44:35.580Z,0.20
2023-01-07T10:47:11.984Z,0.10
2023-01-07T10:50:08.583Z,1.08
2023-01-07T10:52:44.897Z,0.40
2023-01-07T10:55:15.310Z,0.73
2023-01-07T10:57:43.078Z,0.82
2023-01-07T11:00:15.835Z,0.88
2023-01-07T11:02:48.608Z,0.47
2023-01-07T11:05:21.073Z,0.32
2023-01-07T11:07:50.534Z,0.68
2023-01-07T11:10:21.532Z,0.68
2023-01-07T11:13:06.338Z,0.30
2023-01-07T11:15:43.518Z,0.60
2023-01-07T11:18:20.999Z,1.45
2023-01-07T11:20:51.132Z,0.30
2023-01-07T11:23:35.323Z,0.55
2023-01-07T11:26:25.237Z,0.77
2023-01-07T11:28:56.980Z,0.75
2023-01-07T11:31:46.006Z,0.55
2023-01-07T11:34:50.272Z,1.27
2023-01-07T11:37:39.113Z,0.32
2023-01-07T11:40:30.837Z,0.75
2023-01-07T11:43:22.216Z,1.00
2023-01-07T11:46:19.906Z,0.25
2023-01-07T11:48:57.873Z,0.75
2023-01-07T11:51:25.431Z,0.63
2023-01-07T11:53:59.445Z,0.90
2023-01-07T11:56:28.399Z,0.68
2023-01-07T11:59:17.371Z,0.98
2023-01-07T12:01:50.555Z,0.75
2023-01-07T12:04:30.230Z,0.90
2023-01-07T12:07:13.468Z,0.38
2023-01-07T12:09:42.996Z,1.30
2023-01-07T12:12:39.432Z,0.63
2023-01-07T12:15:27.209Z,0.50
2023-01-07T12:18:10.087Z,1.52
2023-01-07T12:21:14.951Z,0.90
2023-01-07T12:24:18.290Z,0.60
2023-01-07T12:27:16.731Z,0.60
2023-01-07T12:29:47.309Z,0.65
2023-01-07T12:32:39.226Z,0.30
2023-01-07T12:35:42.869Z,0.85
2023-01-07T12:38:39.479Z,0.60
2023-01-07T12:41:19.738Z,0.13
2023-01-07T12:44:02.657Z,0.82
2023-01-07T12:46:40.862Z,0.30
2023-01-07T12:49:15.543Z,0.22
2023-01-07T12:51:45.482Z,0.20
2023-01-07T12:54:40.266Z,0.43
2023-01-07T12:57:19.078Z,0.30
2023-01-07T12:59:51.204Z,0.13
2023-01-07T13:02:48.843Z,0.32
2023-01-07T13:05:32.423Z,0.47
2023-01-07T13:08:22.951Z,0.22
2023-01-07T13:11:50.105Z,0.13
2023-01-07T13:14:25.405Z,0.13
2023-01-07T13:16:53.622Z,0.30
2023-01-07T13:19:21.023Z,0.20
2023-01-07T13:21:49.759Z,0.10
2023-01-07T13:24:54.835Z,0.40
2023-01-07T13:27:38.080Z,0.30
2023-01-07T13:30:50.553Z,0.30
2023-01-07T13:33:53.698Z,0.77
2023-01-07T13:36:34.159Z,0.20
2023-01-07T13:39:29.400Z,0.10
2023-01-07T13:42:08.389Z,0.10
2023-01-07T13:44:57.335Z,0.28
2023-01-07T13:47:27.423Z,0.63
2023-01-07T13:50:01.700Z,0.20
2023-01-07T13:52:32.670Z,0.28
2023-01-07T13:55:03.053Z,0.30
2023-01-07T13:57:30.553Z,0.40
2023-01-07T14:00:00.741Z,0.73
2023-01-07T14:02:56.895Z,0.25
2023-01-07T14:05:29.365Z,0.25
2023-01-07T14:08:01.107Z,0.45
2023-01-07T14:10:31.913Z,0.43
2023-01-07T14:13:21.535Z,0.40
2023-01-07T14:16:10.907Z,0.30
2023-01-07T14:18:52.000Z,0.60
2023-01-07T14:21:50.847Z,0.73
2023-01-07T14:24:33.901Z,0.73
2023-01-07T14:27:38.745Z,0.20
2023-01-07T14:30:35.537Z,0.68
2023-01-07T14:33:07.542Z,0.30
2023-01-07T14:35:38.492Z,0.55
2023-01-07T14:38:34.026Z,0.55
2023-01-07T14:41:03.560Z,0.70
2023-01-07T14:43:46.144Z,0.20
2023-01-07T14:46:23.814Z,0.52
2023-01-07T14:52:02.101Z,0.75
2023-01-07T14:55:02.999Z,0.47
2023-01-07T14:57:50.567Z,0.35
2023-01-07T15:03:32.779Z,0.57
2023-01-07T15:06:06.349Z,0.82
2023-01-07T15:09:07.815Z,0.52
2023-01-07T15:12:10.322Z,0.65
2023-01-07T15:15:06.769Z,1.40
2023-01-07T15:17:39.738Z,0.85
2023-01-07T15:20:10.459Z,0.60
2023-01-07T15:23:02.847Z,0.73
2023-01-07T15:25:35.038Z,2.30
2023-01-07T15:28:21.822Z,0.98
2023-01-07T15:31:49.287Z,1.05
2023-01-07T15:34:18.119Z,0.90
2023-01-07T15:36:52.192Z,1.73
2023-01-07T15:39:35.864Z,1.35
2023-01-07T15:42:03.770Z,0.47
2023-01-07T15:47:41.302Z,0.57
2023-01-07T15:50:24.246Z,0.70
2023-01-07T15:52:57.971Z,0.88
2023-01-07T15:55:35.301Z,1.10
2023-01-07T15:58:16.265Z,1.15
2023-01-07T16:00:44.190Z,0.50
2023-01-07T16:05:48.065Z,0.40
2023-01-07T16:08:18.758Z,0.35
2023-01-07T16:11:08.914Z,1.88
2023-01-07T16:13:37.217Z,1.02
2023-01-07T16:16:06.670Z,0.80
2023-01-07T16:18:34.195Z,0.75
2023-01-07T16:21:13.719Z,0.85
2023-01-07T16:23:41.537Z,0.73
2023-01-07T16:26:28.656Z,2.67
2023-01-07T16:29:00.001Z,1.10
2023-01-07T16:31:29.662Z,0.85
2023-01-07T16:33:59.770Z,1.38
2023-01-07T16:36:35.538Z,1.13
2023-01-07T16:39:16.556Z,1.10
2023-01-07T16:41:44.185Z,0.50
2023-01-07T16:44:54.384Z,1.42
2023-01-07T16:47:30.765Z,1.45
2023-01-07T16:50:17.578Z,1.17
2023-01-07T16:52:54.779Z,1.77
2023-01-07T16:56:11.581Z,1.70
2023-01-07T16:58:49.011Z,1.33
2023-01-07T17:01:40.052Z,1.20
2023-01-07T17:04:13.867Z,1.08
2023-01-07T17:06:43.152Z,1.80
2023-01-07T17:09:20.255Z,1.15
2023-01-07T17:11:50.270Z,2.45
2023-01-07T17:14:34.419Z,1.67
2023-01-07T17:17:26.210Z,1.25
2023-01-07T17:20:23.512Z,2.53
2023-01-07T17:22:51.066Z,1.17
2023-01-07T17:25:25.101Z,1.05
2023-01-07T17:28:00.202Z,1.13
2023-01-07T17:30:35.029Z,1.08
2023-01-07T17:33:03.188Z,1.80
2023-01-07T17:35:30.818Z,2.55
2023-01-07T17:37:58.349Z,1.85
2023-01-07T17:40:25.807Z,1.42
2023-01-07T17:43:12.257Z,1.38
2023-01-07T17:45:40.277Z,1.92
2023-01-07T17:48:13.881Z,3.53
2023-01-07T17:50:42.256Z,3.22
2023-01-07T17:53:21.972Z,3.45
2023-01-07T17:55:52.062Z,2.70
2023-01-07T17:58:33.950Z,1.63
2023-01-07T18:01:04.951Z,0.93
2023-01-07T18:03:32.825Z,1.45
2023-01-07T18:06:01.991Z,1.90
2023-01-07T18:08:29.585Z,0.85
2023-01-07T18:11:19.225Z,1.25
2023-01-07T18:13:46.684Z,1.52
2023-01-07T18:16:17.607Z,0.88
2023-01-07T18:18:45.055Z,1.25
2023-01-07T18:21:12.777Z,1.58
2023-01-07T18:23:40.203Z,2.05
2023-01-07T18:26:08.054Z,2.50
2023-01-07T18:31:04.318Z,2.00
2023-01-07T18:33:32.274Z,1.38
2023-01-07T18:36:04.174Z,1.27
2023-01-07T18:38:31.991Z,2.08
2023-01-07T18:40:59.486Z,3.03
2023-01-07T18:43:27.013Z,1.15
2023-01-07T18:45:54.490Z,1.23
2023-01-07T18:48:22.126Z,0.98
2023-01-07T18:50:50.258Z,1.23
2023-01-07T18:53:19.996Z,1.08
2023-01-07T18:55:58.206Z,1.42
2023-01-07T18:58:27.057Z,1.15
2023-01-07T19:00:55.151Z,2.08
2023-01-07T19:03:22.724Z,1.70
2023-01-07T19:05:50.284Z,0.68
2023-01-07T19:08:17.677Z,1.35
2023-01-07T19:10:45.657Z,1.35
2023-01-07T19:13:16.047Z,1.48
2023-01-07T19:15:43.488Z,1.50
2023-01-07T19:18:16.790Z,0.70
2023-01-07T19:20:45.053Z,1.23
2023-01-07T19:23:12.365Z,1.08
2023-01-07T19:25:39.819Z,1.08
2023-01-07T19:28:16.693Z,1.27
2023-01-07T19:30:44.157Z,1.33
2023-01-07T19:33:13.158Z,0.60
2023-01-07T19:35:40.559Z,1.58
2023-01-07T19:38:08.258Z,0.77
2023-01-07T19:40:35.716Z,2.00
2023-01-07T19:43:03.079Z,0.90
2023-01-07T19:45:30.583Z,0.38
2023-01-07T19:47:58.279Z,0.77
2023-01-07T19:50:25.653Z,0.60
2023-01-07T19:52:59.945Z,1.27
2023-01-07T19:55:27.694Z,2.65
2023-01-07T19:57:55.967Z,0.20
2023-01-07T20:00:25.255Z,0.55
2023-01-07T20:02:53.126Z,0.93
2023-01-07T20:05:20.803Z,0.73
2023-01-07T20:07:48.559Z,1.58
2023-01-07T20:10:16.396Z,0.85
2023-01-07T20:12:46.280Z,0.70
2023-01-07T20:15:14.048Z,0.63
2023-01-07T20:17:41.565Z,1.02
2023-01-07T20:20:10.032Z,0.77
2023-01-07T20:22:40.311Z,1.52
2023-01-07T20:25:09.630Z,1.55
2023-01-07T20:27:38.709Z,0.82
2023-01-07T20:30:08.514Z,1.58
2023-01-07T20:32:36.197Z,1.35
2023-01-07T20:35:06.006Z,0.90
2023-01-07T20:37:34.842Z,1.45
2023-01-07T20:40:06.191Z,2.60
2023-01-07T20:42:33.945Z,1.38
2023-01-07T20:45:01.920Z,2.00
2023-01-07T20:47:29.286Z,1.75
2023-01-07T20:49:57.288Z,1.70
2023-01-07T20:52:24.597Z,1.58
2023-01-07T20:54:53.451Z,1.42
2023-01-07T20:57:20.952Z,1.60
2023-01-07T20:59:48.716Z,1.98
2023-01-07T21:04:44.592Z,1.13
2023-01-07T21:07:14.109Z,0.95
2023-01-07T21:09:44.487Z,1.58
2023-01-07T21:12:13.431Z,1.83
2023-01-07T21:14:40.820Z,2.42
2023-01-07T21:17:08.345Z,2.88
2023-01-07T21:19:38.651Z,3.08
2023-01-07T21:22:06.229Z,1.83
2023-01-07T21:24:34.139Z,1.65
2023-01-07T21:27:02.825Z,1.65
2023-01-07T21:29:35.310Z,2.40
2023-01-07T21:32:04.355Z,1.23
2023-01-07T21:34:32.180Z,1.65
2023-01-07T21:39:27.419Z,2.33
2023-01-07T21:41:54.962Z,0.95
2023-01-07T21:44:22.464Z,2.88
2023-01-07T21:46:50.006Z,1.65
2023-01-07T21:49:19.201Z,1.55
2023-01-07T21:51:49.503Z,2.22
2023-01-07T21:54:17.042Z,2.58
2023-01-07T21:56:44.550Z,3.13
2023-01-07T21:59:12.001Z,1.88
2023-01-07T22:01:39.480Z,2.63
2023-01-07T22:04:08.979Z,1.83
2023-01-07T22:06:37.504Z,2.40
2023-01-07T22:09:08.342Z,3.22
2023-01-07T22:11:38.784Z,1.30
2023-01-07T22:14:06.073Z,2.17
2023-01-07T22:16:33.610Z,1.85
2023-01-07T22:19:01.672Z,1.00
2023-01-07T22:21:29.445Z,2.15
2023-01-07T22:23:56.970Z,1.15
2023-01-07T22:26:24.477Z,2.72
2023-01-07T22:28:55.250Z,2.35
2023-01-07T22:31:33.883Z,0.63
2023-01-07T22:34:01.313Z,2.10
2023-01-07T22:36:34.986Z,2.47
2023-01-07T22:39:28.023Z,3.08
2023-01-07T22:42:02.051Z,1.25
2023-01-07T22:44:37.033Z,1.45
2023-01-07T22:47:09.890Z,1.27
2023-01-07T22:49:40.061Z,1.95
2023-01-07T22:52:08.525Z,1.73
2023-01-07T22:54:36.940Z,2.03
2023-01-07T22:57:06.894Z,2.28
2023-01-07T22:59:35.869Z,2.80
2023-01-07T23:02:04.287Z,1.55
2023-01-07T23:04:32.031Z,1.63
2023-01-07T23:09:26.730Z,1.90
2023-01-07T23:11:59.619Z,1.00
2023-01-07T23:14:29.251Z,1.38
2023-01-07T23:16:57.355Z,0.93
2023-01-07T23:19:24.703Z,1.13
2023-01-07T23:21:53.301Z,0.85
2023-01-07T23:24:21.376Z,2.67
2023-01-07T23:26:51.244Z,1.65
2023-01-07T23:29:19.335Z,2.40
2023-01-07T23:31:47.193Z,2.00
2023-01-07T23:34:15.457Z,0.95
2023-01-07T23:36:43.072Z,1.27
2023-01-07T23:39:24.688Z,1.98
2023-01-07T23:46:14.635Z,1.05
2023-01-07T23:48:43.870Z,1.20
2023-01-07T23:51:14.642Z,1.23
2023-01-07T23:53:42.738Z,2.83
2023-01-07T23:56:11.342Z,2.22
2023-01-07T23:58:39.083Z,2.00
